Time;durP1;ratioP1;P1;durP2;ratioP2;P2;SDS_P1;SDS_P2;PMS_P1;PMS_P2;Temp;Humidity;BMP_temperature;BMP_pressure;BME280_temperature;BME280_humidity;BME280_pressure;Samples;Min_cycle;Max_cycle;Signal;HPM_P1;HPM_P2
2023/07/09 00:00:17;;;;;;;9.82;8.85;;;22.90;99.90;;;;;;5035425;28;20225;-83
2023/07/09 00:02:45;;;;;;;10.02;9.13;;;22.90;99.90;;;;;;5035058;28;20249;-83
2023/07/09 00:05:14;;;;;;;10.18;9.13;;;22.80;99.90;;;;;;5033550;28;20222;-84
2023/07/09 00:07:42;;;;;;;9.98;8.98;;;22.80;99.90;;;;;;5052296;28;20245;-82
2023/07/09 00:10:20;;;;;;;10.30;9.30;;;22.80;99.90;;;;;;5053599;28;20217;-83
2023/07/09 00:12:48;;;;;;;10.93;9.82;;;22.80;99.90;;;;;;5040846;28;20237;-82
2023/07/09 00:15:18;;;;;;;10.55;9.55;;;22.70;99.90;;;;;;5032936;28;20616;-83
2023/07/09 00:17:46;;;;;;;12.25;10.05;;;22.70;99.90;;;;;;5033663;28;20580;-84
2023/07/09 00:20:16;;;;;;;11.63;10.45;;;22.70;99.90;;;;;;5033050;28;20199;-82
2023/07/09 00:22:51;;;;;;;10.73;9.73;;;22.70;99.90;;;;;;5033978;28;20213;-82
2023/07/09 00:25:19;;;;;;;10.18;9.25;;;22.60;99.90;;;;;;5033285;28;20206;-83
2023/07/09 00:27:49;;;;;;;10.82;9.82;;;22.60;99.90;;;;;;5033387;28;20228;-82
2023/07/09 00:30:18;;;;;;;11.13;10.13;;;22.60;99.90;;;;;;5034053;28;20225;-82
2023/07/09 00:32:47;;;;;;;9.95;8.95;;;22.60;99.90;;;;;;5033417;28;20191;-83
2023/07/09 00:35:15;;;;;;;9.93;9.02;;;22.50;99.90;;;;;;5032839;28;20290;-84
2023/07/09 00:37:43;;;;;;;10.18;9.27;;;22.50;99.90;;;;;;5033464;28;20228;-82
2023/07/09 00:40:18;;;;;;;10.23;9.23;;;22.50;99.90;;;;;;5033392;28;20493;-83
2023/07/09 00:42:47;;;;;;;11.15;9.85;;;22.50;99.90;;;;;;5033477;28;20260;-83
2023/07/09 00:45:25;;;;;;;10.23;9.27;;;22.50;99.90;;;;;;5033229;28;20211;-82
2023/07/09 00:47:57;;;;;;;9.80;8.82;;;22.50;99.90;;;;;;5033102;28;20603;-82
2023/07/09 00:50:35;;;;;;;10.98;9.02;;;22.50;99.90;;;;;;5033535;28;20638;-84
2023/07/09 00:53:07;;;;;;;10.00;9.10;;;22.50;99.90;;;;;;5033550;28;20588;-83
2023/07/09 00:55:40;;;;;;;10.48;9.48;;;22.50;99.90;;;;;;5032862;28;20195;-83
2023/07/09 00:58:10;;;;;;;11.05;9.95;;;22.50;99.90;;;;;;5033576;28;20186;-85
2023/07/09 01:00:46;;;;;;;11.93;10.73;;;22.50;99.90;;;;;;5049137;28;20236;-82
2023/07/09 01:03:22;;;;;;;12.40;11.10;;;22.50;99.90;;;;;;5054420;28;20291;-84
2023/07/09 01:05:51;;;;;;;13.60;11.35;;;22.50;99.90;;;;;;5057490;28;20460;-83
2023/07/09 01:08:20;;;;;;;12.15;10.95;;;22.50;99.90;;;;;;5045102;28;20213;-81
2023/07/09 01:10:47;;;;;;;11.30;10.20;;;22.50;99.90;;;;;;5036816;28;20218;-83
2023/07/09 01:13:15;;;;;;;13.25;11.88;;;22.50;99.90;;;;;;5037429;28;20222;-81
2023/07/09 01:15:42;;;;;;;11.27;10.15;;;22.50;99.90;;;;;;5037097;28;20777;-83
2023/07/09 01:18:10;;;;;;;12.38;11.13;;;22.50;99.90;;;;;;5037353;28;20277;-84
2023/07/09 01:20:40;;;;;;;12.57;11.38;;;22.50;99.90;;;;;;5037271;28;20575;-83
2023/07/09 01:23:08;;;;;;;12.20;11.07;;;22.50;99.90;;;;;;5036739;28;20218;-82
2023/07/09 01:25:46;;;;;;;12.98;11.77;;;22.50;99.90;;;;;;5036889;28;20635;-82
2023/07/09 01:28:13;;;;;;;14.25;12.88;;;22.40;99.90;;;;;;5037214;28;20252;-83
2023/07/09 01:30:42;;;;;;;13.20;11.88;;;22.50;99.90;;;;;;5036261;28;20326;-82
2023/07/09 01:33:09;;;;;;;13.10;11.80;;;22.50;99.90;;;;;;5036366;28;20199;-81
2023/07/09 01:35:40;;;;;;;12.00;10.90;;;22.40;99.90;;;;;;5036139;28;20594;-82
2023/07/09 01:38:09;;;;;;;11.02;9.93;;;22.40;99.90;;;;;;5036381;28;20502;-83
2023/07/09 01:40:37;;;;;;;11.98;10.75;;;22.40;99.90;;;;;;5036128;28;20199;-83
2023/07/09 01:43:06;;;;;;;11.88;10.75;;;22.40;99.90;;;;;;5036660;28;20202;-82
2023/07/09 01:45:34;;;;;;;11.63;10.52;;;22.30;99.90;;;;;;5038108;28;20285;-82
2023/07/09 01:48:02;;;;;;;10.80;9.70;;;22.30;99.90;;;;;;5036630;28;20580;-82
2023/07/09 01:50:29;;;;;;;11.70;10.50;;;22.30;99.90;;;;;;5036522;28;20199;-81
2023/07/09 01:52:57;;;;;;;11.68;10.32;;;22.30;99.90;;;;;;5035265;28;20230;-83
2023/07/09 01:55:26;;;;;;;11.75;10.65;;;22.20;99.90;;;;;;5036396;28;20599;-81
2023/07/09 01:57:53;;;;;;;11.45;10.35;;;22.20;99.90;;;;;;5035477;28;20587;-81
2023/07/09 02:00:20;;;;;;;10.98;9.98;;;22.20;99.90;;;;;;5036072;28;20199;-82
2023/07/09 02:02:48;;;;;;;11.05;9.90;;;22.20;99.90;;;;;;5035829;28;20203;-83
2023/07/09 02:05:17;;;;;;;10.57;9.55;;;22.10;99.90;;;;;;5036252;28;20222;-82
2023/07/09 02:07:44;;;;;;;11.38;9.82;;;22.10;99.90;;;;;;5036329;28;20264;-82
2023/07/09 02:10:12;;;;;;;11.20;10.10;;;22.10;99.90;;;;;;5054208;28;20289;-85
2023/07/09 02:12:41;;;;;;;11.32;10.23;;;22.10;99.90;;;;;;5056474;28;20276;-84
2023/07/09 02:15:09;;;;;;;14.32;12.88;;;22.10;99.90;;;;;;5055947;28;20241;-84
2023/07/09 02:17:36;;;;;;;14.10;12.80;;;22.10;99.90;;;;;;5056844;28;20256;-85
2023/07/09 02:20:05;;;;;;;18.67;15.50;;;22.10;99.90;;;;;;5055353;28;20491;-84
2023/07/09 02:22:32;;;;;;;13.73;12.32;;;22.10;99.90;;;;;;5056688;28;20193;-85
2023/07/09 02:24:59;;;;;;;12.85;11.60;;;22.10;99.90;;;;;;5043507;28;20207;-83
2023/07/09 02:27:27;;;;;;;12.48;11.18;;;22.00;99.90;;;;;;5036444;28;20342;-84
2023/07/09 02:29:56;;;;;;;11.40;10.15;;;22.10;99.90;;;;;;5036484;28;20566;-85
2023/07/09 02:32:26;;;;;;;12.45;11.18;;;22.10;99.90;;;;;;5036337;28;20246;-84
2023/07/09 02:34:54;;;;;;;11.73;10.52;;;22.00;99.90;;;;;;5056156;28;20210;-84
2023/07/09 02:37:23;;;;;;;12.35;10.27;;;22.00;99.90;;;;;;5056528;28;20244;-84
2023/07/09 02:39:50;;;;;;;11.18;10.00;;;22.00;99.90;;;;;;5055912;28;20226;-85
2023/07/09 02:42:19;;;;;;;10.65;9.65;;;22.00;99.90;;;;;;5053769;28;20233;-83
2023/07/09 02:44:47;;;;;;;12.32;11.15;;;22.00;99.90;;;;;;5035861;28;20823;-84
2023/07/09 02:47:16;;;;;;;12.50;11.30;;;21.90;99.90;;;;;;5036178;28;20513;-84
2023/07/09 02:49:43;;;;;;;11.95;10.80;;;21.90;99.90;;;;;;5035970;28;20229;-84
2023/07/09 02:52:10;;;;;;;11.93;10.80;;;21.90;99.90;;;;;;5038149;28;20280;-85
2023/07/09 02:54:37;;;;;;;16.25;14.73;;;21.90;99.90;;;;;;5055788;28;20198;-84
2023/07/09 02:57:05;;;;;;;13.05;11.75;;;21.90;99.90;;;;;;5056051;28;20264;-85
2023/07/09 02:59:32;;;;;;;12.18;10.98;;;21.90;99.90;;;;;;5055682;28;20217;-84
2023/07/09 03:02:00;;;;;;;11.23;10.13;;;21.90;99.90;;;;;;5040453;28;20290;-84
2023/07/09 03:04:31;;;;;;;15.13;13.63;;;21.90;99.90;;;;;;5035690;28;20187;-85
2023/07/09 03:06:59;;;;;;;13.30;12.00;;;21.80;99.90;;;;;;5035952;28;20194;-87
2023/07/09 03:09:27;;;;;;;16.25;14.05;;;21.80;99.90;;;;;;5035093;28;20206;-84
2023/07/09 03:11:54;;;;;;;15.60;14.15;;;21.80;99.90;;;;;;5035489;28;20662;-84
2023/07/09 03:14:21;;;;;;;14.38;12.98;;;21.80;99.90;;;;;;5070680;22;20248;-85
2023/07/09 03:16:48;;;;;;;12.55;11.35;;;21.80;99.90;;;;;;5075177;28;20294;-84
2023/07/09 03:19:15;;;;;;;12.73;11.52;;;21.80;99.90;;;;;;5062136;28;20194;-83
2023/07/09 03:21:43;;;;;;;11.95;10.85;;;21.80;99.90;;;;;;5055120;28;20289;-85
2023/07/09 03:24:10;;;;;;;15.82;14.23;;;21.80;99.90;;;;;;5055074;28;20225;-84
2023/07/09 03:26:37;;;;;;;12.52;11.32;;;21.80;99.90;;;;;;5070897;28;20249;-85
2023/07/09 03:29:04;;;;;;;14.30;12.88;;;21.80;99.90;;;;;;5074965;28;20197;-83
2023/07/09 03:31:34;;;;;;;15.15;13.52;;;21.70;99.90;;;;;;5058366;28;20217;-83
2023/07/09 03:34:02;;;;;;;15.25;13.65;;;21.70;99.90;;;;;;5054942;28;20198;-84
2023/07/09 03:36:29;;;;;;;14.88;13.38;;;21.70;99.90;;;;;;5055137;28;20198;-84
2023/07/09 03:38:58;;;;;;;17.50;15.70;;;21.70;99.90;;;;;;5054684;28;20208;-83
2023/07/09 03:41:25;;;;;;;14.77;13.30;;;21.70;99.90;;;;;;5072220;28;20205;-84
2023/07/09 03:43:53;;;;;;;13.45;12.15;;;21.70;99.90;;;;;;5073716;28;20225;-84
2023/07/09 03:46:20;;;;;;;13.25;11.85;;;21.60;99.90;;;;;;5074413;28;20566;-83
2023/07/09 03:48:47;;;;;;;12.80;11.50;;;21.60;99.90;;;;;;5074478;28;20201;-83
2023/07/09 03:51:14;;;;;;;17.17;15.43;;;21.60;99.90;;;;;;5056598;28;20264;-84
2023/07/09 03:53:41;;;;;;;14.45;12.95;;;21.60;99.90;;;;;;5054447;28;20937;-84
2023/07/09 03:56:10;;;;;;;13.68;12.30;;;21.60;99.90;;;;;;5054460;28;20248;-84
2023/07/09 03:58:37;;;;;;;14.55;13.05;;;21.60;99.90;;;;;;5054822;28;20206;-83
2023/07/09 04:01:04;;;;;;;12.93;11.55;;;21.60;99.90;;;;;;5054281;28;20209;-85
2023/07/09 04:03:31;;;;;;;15.75;14.13;;;21.60;99.90;;;;;;5074396;28;20209;-84
2023/07/09 04:05:58;;;;;;;15.35;13.82;;;21.60;99.90;;;;;;5074043;28;20232;-83
2023/07/09 04:08:26;;;;;;;15.38;13.68;;;21.60;99.90;;;;;;5074060;28;20500;-83
2023/07/09 04:10:56;;;;;;;17.30;15.40;;;21.60;99.90;;;;;;5066810;28;20591;-83
2023/07/09 04:13:24;;;;;;;19.00;16.65;;;21.60;99.90;;;;;;5053375;28;20315;-83
2023/07/09 04:15:51;;;;;;;16.20;14.50;;;21.60;99.90;;;;;;5053742;28;20271;-82
2023/07/09 04:18:18;;;;;;;16.30;14.63;;;21.60;99.90;;;;;;5053030;28;20297;-83
2023/07/09 04:20:50;;;;;;;16.23;14.52;;;21.60;99.90;;;;;;5053293;28;20244;-83
2023/07/09 04:23:17;;;;;;;30.58;23.70;;;21.60;99.90;;;;;;5058238;28;20769;-83
2023/07/09 04:25:44;;;;;;;24.83;22.13;;;21.70;99.90;;;;;;5073307;28;20239;-83
2023/07/09 04:28:11;;;;;;;18.00;15.95;;;21.70;99.90;;;;;;5061387;28;20213;-82
2023/07/09 04:30:47;;;;;;;16.85;14.50;;;21.70;99.90;;;;;;5053469;28;20244;-82
2023/07/09 04:33:17;;;;;;;17.17;14.90;;;21.80;99.90;;;;;;5053268;28;20209;-83
2023/07/09 04:35:45;;;;;;;15.20;13.68;;;21.80;99.90;;;;;;5053454;28;20312;-83
2023/07/09 04:38:12;;;;;;;16.38;13.85;;;21.80;99.90;;;;;;5053372;28;20244;-83
2023/07/09 04:40:39;;;;;;;18.45;16.55;;;21.90;99.90;;;;;;5052561;28;20198;-82
2023/07/09 04:43:06;;;;;;;23.65;21.25;;;21.90;99.90;;;;;;5053438;28;20213;-83
2023/07/09 04:45:32;;;;;;;19.77;17.67;;;21.90;99.90;;;;;;5053038;28;20295;-82
2023/07/09 04:48:01;;;;;;;23.25;20.85;;;21.90;99.90;;;;;;5052825;28;20547;-82
2023/07/09 04:50:28;;;;;;;18.25;16.38;;;21.80;99.90;;;;;;5053260;28;20404;-83
2023/07/09 04:52:55;;;;;;;16.05;14.27;;;21.80;99.90;;;;;;5053023;28;20304;-84
2023/07/09 04:55:22;;;;;;;19.63;17.33;;;21.80;99.90;;;;;;5052989;28;20202;-82
2023/07/09 04:57:49;;;;;;;23.80;21.40;;;21.70;99.90;;;;;;5052553;28;20285;-82
2023/07/09 05:00:17;;;;;;;20.17;17.95;;;21.80;99.90;;;;;;5053385;28;20210;-82
2023/07/09 05:02:44;;;;;;;23.08;20.83;;;21.80;99.90;;;;;;5052884;28;20194;-82
2023/07/09 05:05:12;;;;;;;27.58;24.50;;;21.80;99.90;;;;;;5053451;28;20448;-83
2023/07/09 05:07:40;;;;;;;23.17;20.77;;;21.80;99.90;;;;;;5068321;28;20212;-83
2023/07/09 05:10:07;;;;;;;17.23;15.40;;;21.90;99.90;;;;;;5073403;28;20276;-84
2023/07/09 05:12:35;;;;;;;19.42;17.38;;;21.90;99.90;;;;;;5072498;28;20205;-82
2023/07/09 05:15:01;;;;;;;16.23;14.52;;;22.00;99.90;;;;;;5072312;28;20241;-83
2023/07/09 05:17:28;;;;;;;18.17;16.27;;;22.10;99.90;;;;;;5073038;28;20617;-83
2023/07/09 05:19:55;;;;;;;18.80;16.25;;;22.20;99.90;;;;;;5054204;28;20237;-83
2023/07/09 05:22:24;;;;;;;20.73;18.67;;;22.30;99.90;;;;;;5052633;28;20198;-83
2023/07/09 05:24:51;;;;;;;21.23;18.98;;;22.40;99.90;;;;;;5052934;28;20280;-83
2023/07/09 05:27:18;;;;;;;18.52;16.65;;;22.60;99.90;;;;;;5053400;28;20253;-82
2023/07/09 05:29:45;;;;;;;23.60;21.30;;;22.70;99.90;;;;;;5052684;28;20232;-84
2023/07/09 05:32:12;;;;;;;26.83;24.13;;;22.80;99.90;;;;;;5052936;28;20783;-83
2023/07/09 05:34:39;;;;;;;22.55;20.15;;;23.00;99.90;;;;;;5053252;28;20289;-83
2023/07/09 05:37:06;;;;;;;23.30;20.88;;;23.10;99.90;;;;;;5053346;28;20247;-81
2023/07/09 05:39:35;;;;;;;22.98;20.63;;;23.10;99.90;;;;;;5052966;28;20198;-83
2023/07/09 05:42:02;;;;;;;19.17;17.27;;;23.30;99.90;;;;;;5066878;28;20205;-84
2023/07/09 05:44:29;;;;;;;20.08;17.23;;;23.40;99.90;;;;;;5067867;28;20216;-84
2023/07/09 05:46:56;;;;;;;23.55;19.15;;;23.60;99.90;;;;;;5052746;28;20232;-83
2023/07/09 05:49:23;;;;;;;21.30;19.30;;;23.70;99.90;;;;;;5054363;28;20202;-83
2023/07/09 05:51:50;;;;;;;17.45;15.65;;;23.70;99.90;;;;;;5055862;28;20269;-84
2023/07/09 05:54:18;;;;;;;22.95;20.42;;;23.70;99.90;;;;;;5056279;28;20281;-84
2023/07/09 05:56:47;;;;;;;19.85;17.77;;;23.90;99.90;;;;;;5056299;28;20206;-82
2023/07/09 05:59:14;;;;;;;19.10;16.73;;;23.90;99.90;;;;;;5056873;28;20210;-84
2023/07/09 06:01:41;;;;;;;17.77;15.95;;;24.00;99.90;;;;;;5056630;28;20854;-83
2023/07/09 06:04:08;;;;;;;18.40;16.50;;;24.10;99.90;;;;;;5056253;28;20584;-84
2023/07/09 06:06:35;;;;;;;20.48;18.40;;;24.20;99.90;;;;;;5057174;28;20237;-83
2023/07/09 06:09:01;;;;;;;22.05;19.90;;;24.30;99.90;;;;;;5055764;28;20198;-83
2023/07/09 06:11:29;;;;;;;21.98;19.10;;;24.40;99.90;;;;;;5056507;28;20206;-84
2023/07/09 06:13:58;;;;;;;21.45;19.15;;;24.50;99.90;;;;;;5056149;28;20237;-83
2023/07/09 06:16:25;;;;;;;21.15;18.85;;;24.50;99.90;;;;;;5056155;28;20220;-83
2023/07/09 06:18:52;;;;;;;14.88;13.27;;;24.70;99.90;;;;;;5056627;28;20190;-84
2023/07/09 06:21:19;;;;;;;16.33;13.05;;;24.70;99.90;;;;;;5056541;28;20217;-85
2023/07/09 06:23:46;;;;;;;18.15;16.27;;;24.80;99.90;;;;;;5057020;28;20208;-83
2023/07/09 06:26:14;;;;;;;15.55;13.90;;;24.90;99.90;;;;;;5072916;28;20561;-84
2023/07/09 06:28:41;;;;;;;13.57;12.18;;;24.90;99.90;;;;;;5071045;28;20264;-85
2023/07/09 06:31:09;;;;;;;14.73;13.20;;;25.00;99.90;;;;;;5067690;22;20233;-83
2023/07/09 06:33:36;;;;;;;12.15;10.15;;;25.10;99.90;;;;;;5075546;28;20209;-84
2023/07/09 06:36:04;;;;;;;11.77;10.10;;;25.30;99.90;;;;;;5075748;28;20190;-86
2023/07/09 06:38:31;;;;;;;11.57;9.82;;;25.40;99.90;;;;;;5076373;28;20193;-85
2023/07/09 06:40:59;;;;;;;11.73;9.10;;;25.60;99.90;;;;;;5072021;28;20201;-86
2023/07/09 06:43:26;;;;;;;9.55;7.72;;;25.80;99.90;;;;;;5075926;28;20649;-85
2023/07/09 06:45:57;;;;;;;7.70;6.90;;;25.80;99.90;;;;;;5075778;28;20285;-90
2023/07/09 06:48:27;;;;;;;13.35;8.43;;;25.90;99.90;;;;;;5076421;28;20235;-85
2023/07/09 06:50:54;;;;;;;10.45;9.45;;;26.00;99.90;;;;;;5076292;28;20312;-86
2023/07/09 06:53:22;;;;;;;10.73;9.20;;;26.00;99.90;;;;;;5075717;28;20256;-83
2023/07/09 06:55:49;;;;;;;10.15;7.72;;;25.90;99.90;;;;;;5075730;28;20217;-85
2023/07/09 06:58:16;;;;;;;10.90;8.25;;;25.90;99.90;;;;;;5075771;28;20217;-84
2023/07/09 07:00:44;;;;;;;9.63;7.53;;;26.00;99.90;;;;;;5074208;28;20236;-86
2023/07/09 07:03:11;;;;;;;9.52;8.52;;;26.10;99.90;;;;;;5055632;28;20202;-85
2023/07/09 07:05:44;;;;;;;8.18;7.38;;;26.20;99.90;;;;;;5055801;28;20205;-86
2023/07/09 07:08:34;;;;;;;8.68;7.72;;;26.40;99.90;;;;;;5050765;28;20236;-88
2023/07/09 07:11:05;;;;;;;8.90;7.97;;;26.50;99.90;;;;;;5069064;28;20209;-81
2023/07/09 07:13:33;;;;;;;8.88;7.95;;;26.80;99.90;;;;;;5063682;28;20248;-83
2023/07/09 07:16:00;;;;;;;8.30;7.15;;;26.90;99.90;;;;;;5074541;28;20224;-83
2023/07/09 07:18:28;;;;;;;9.85;8.85;;;27.10;99.90;;;;;;5061787;28;20197;-85
2023/07/09 07:20:56;;;;;;;11.00;8.38;;;27.20;99.90;;;;;;5074322;28;20201;-83
2023/07/09 07:23:24;;;;;;;10.73;7.65;;;27.20;99.90;;;;;;5068847;28;20205;-88
2023/07/09 07:25:51;;;;;;;8.35;7.40;;;27.30;99.90;;;;;;5065009;28;20231;-85
2023/07/09 07:28:19;;;;;;;7.40;6.38;;;27.30;99.90;;;;;;5073666;28;20185;-85
2023/07/09 07:30:46;;;;;;;6.05;5.30;;;27.40;99.90;;;;;;5074513;28;20563;-86
2023/07/09 07:33:15;;;;;;;5.75;4.70;;;27.60;99.90;;;;;;5071855;28;20209;-82
2023/07/09 07:35:42;;;;;;;5.18;4.40;;;27.90;99.90;;;;;;5053541;28;20795;-82
2023/07/09 07:38:11;;;;;;;7.45;4.57;;;28.10;99.90;;;;;;5054478;28;20217;-87
2023/07/09 07:40:38;;;;;;;5.80;4.18;;;28.30;99.90;;;;;;5054728;28;20236;-84
2023/07/09 07:43:04;;;;;;;6.10;4.35;;;28.40;99.90;;;;;;5053293;28;20254;-86
2023/07/09 07:45:31;;;;;;;4.60;4.00;;;28.50;99.90;;;;;;5054414;28;20233;-82
2023/07/09 07:47:58;;;;;;;4.53;4.13;;;28.60;99.90;;;;;;5053965;28;20472;-82
2023/07/09 07:50:25;;;;;;;4.32;3.22;;;28.50;99.90;;;;;;5053278;28;20285;-86
2023/07/09 07:52:52;;;;;;;4.68;3.50;;;28.70;99.90;;;;;;5036200;28;20831;-88
2023/07/09 07:55:21;;;;;;;4.57;3.40;;;28.90;99.90;;;;;;5033520;28;20221;-84
2023/07/09 07:57:48;;;;;;;3.92;3.53;;;28.90;99.90;;;;;;5051958;28;20202;-82
2023/07/09 08:00:16;;;;;;;7.35;3.22;;;29.10;99.90;;;;;;5053616;28;20435;-86
2023/07/09 08:02:43;;;;;;;4.15;2.95;;;29.30;99.90;;;;;;5053651;28;20636;-84
2023/07/09 08:05:10;;;;;;;4.20;3.30;;;29.40;99.90;;;;;;5034031;28;20301;-85
2023/07/09 08:07:37;;;;;;;4.10;2.90;;;29.50;99.90;;;;;;5034490;28;20241;-85
2023/07/09 08:10:05;;;;;;;3.78;2.85;;;29.60;99.90;;;;;;5034435;28;20206;-85
2023/07/09 08:12:33;;;;;;;3.03;2.47;;;29.70;99.90;;;;;;5045634;28;20504;-84
2023/07/09 08:15:00;;;;;;;4.13;2.13;;;29.80;99.90;;;;;;5053658;28;20198;-86
2023/07/09 08:17:27;;;;;;;2.83;2.30;;;29.90;99.90;;;;;;5054056;28;20198;-87
2023/07/09 08:19:55;;;;;;;3.13;2.55;;;30.10;99.90;;;;;;5049267;28;20686;-84
2023/07/09 08:22:23;;;;;;;4.57;2.70;;;30.20;99.90;;;;;;5046732;28;20658;-84
2023/07/09 08:24:50;;;;;;;3.33;2.65;;;30.20;99.90;;;;;;5052440;28;20205;-86
2023/07/09 08:27:18;;;;;;;2.53;2.33;;;30.20;99.90;;;;;;5050531;28;20234;-86
2023/07/09 08:29:47;;;;;;;5.28;2.83;;;30.40;99.90;;;;;;5054223;28;20232;-88
2023/07/09 08:32:15;;;;;;;3.90;2.53;;;30.40;99.90;;;;;;5053405;28;20315;-86
2023/07/09 08:34:42;;;;;;;3.45;2.53;;;30.40;99.90;;;;;;5053540;28;20298;-86
2023/07/09 08:37:09;;;;;;;3.67;2.67;;;30.50;99.90;;;;;;5054159;28;20201;-88
2023/07/09 08:39:37;;;;;;;3.42;3.13;;;30.60;99.90;;;;;;5062640;22;20259;-87
2023/07/09 08:42:08;;;;;;;5.07;2.80;;;30.70;99.90;;;;;;5073903;28;20204;-85
2023/07/09 08:44:56;;;;;;;5.40;2.97;;;30.90;99.90;;;;;;5073042;28;20646;-83
2023/07/09 08:47:34;;;;;;;3.53;2.38;;;30.90;99.90;;;;;;5067962;28;20189;-87
2023/07/09 08:50:07;;;;;;;3.50;2.47;;;30.80;99.90;;;;;;5053637;28;20198;-87
2023/07/09 08:52:37;;;;;;;3.33;2.53;;;30.80;99.90;;;;;;5052325;28;20237;-83
2023/07/09 08:55:08;;;;;;;4.53;2.75;;;30.80;99.90;;;;;;5070552;28;20228;-84
2023/07/09 08:57:38;;;;;;;3.25;2.20;;;30.80;99.90;;;;;;5073542;28;20201;-85
2023/07/09 09:00:16;;;;;;;2.95;2.40;;;30.90;99.90;;;;;;5072109;28;20276;-83
2023/07/09 09:02:51;;;;;;;6.63;2.80;;;30.90;99.90;;;;;;5063123;28;20213;-83
2023/07/09 09:05:21;;;;;;;5.90;3.17;;;31.00;99.90;;;;;;5053826;28;20236;-84
2023/07/09 09:07:55;;;;;;;3.50;2.58;;;31.00;99.90;;;;;;5068107;28;20284;-83
2023/07/09 09:10:30;;;;;;;2.75;2.40;;;31.20;99.90;;;;;;5073472;28;20212;-87
2023/07/09 09:13:09;;;;;;;3.88;2.25;;;31.30;99.90;;;;;;5076505;28;20256;-88
2023/07/09 09:15:40;;;;;;;3.10;2.22;;;31.20;99.90;;;;;;5073749;28;20204;-86
2023/07/09 09:18:22;;;;;;;3.20;2.78;;;31.20;99.90;;;;;;5056827;28;20225;-89
2023/07/09 09:20:56;;;;;;;4.28;2.80;;;31.40;99.90;;;;;;5052642;28;20218;-86
2023/07/09 09:23:25;;;;;;;3.22;2.55;;;31.40;99.90;;;;;;5053952;28;20272;-85
2023/07/09 09:25:56;;;;;;;3.13;2.55;;;31.40;99.90;;;;;;5057582;28;20225;-90
2023/07/09 09:28:25;;;;;;;4.40;2.33;;;31.50;99.90;;;;;;5056926;28;20198;-85
2023/07/09 09:30:53;;;;;;;2.85;2.10;;;31.70;99.90;;;;;;5057058;28;20205;-87
2023/07/09 09:33:20;;;;;;;2.85;2.00;;;31.90;99.90;;;;;;5069178;28;20621;-89
2023/07/09 09:35:48;;;;;;;3.58;2.20;;;31.80;99.90;;;;;;5076852;28;20267;-85
2023/07/09 09:38:19;;;;;;;3.03;1.80;;;31.70;99.90;;;;;;5077104;28;20239;-82
2023/07/09 09:40:46;;;;;;;2.53;1.80;;;31.70;99.90;;;;;;5077059;28;20308;-86
2023/07/09 09:43:15;;;;;;;3.78;1.90;;;31.60;99.90;;;;;;5076337;28;20205;-90
2023/07/09 09:45:45;;;;;;;3.45;1.70;;;31.50;99.90;;;;;;5074872;28;20288;-83
2023/07/09 09:48:18;;;;;;;2.58;1.85;;;31.60;99.90;;;;;;5065100;28;20235;-85
2023/07/09 09:50:47;;;;;;;2.55;1.95;;;31.50;99.90;;;;;;5073821;28;20233;-87
2023/07/09 09:53:21;;;;;;;2.70;1.90;;;31.60;99.90;;;;;;5071272;28;20836;-87
2023/07/09 09:55:49;;;;;;;2.65;2.08;;;31.60;99.90;;;;;;5068597;28;20285;-85
2023/07/09 09:58:18;;;;;;;4.15;2.28;;;31.70;99.90;;;;;;5067693;28;20277;-87
2023/07/09 10:00:51;;;;;;;5.78;2.28;;;31.90;99.90;;;;;;5067318;28;20281;-85
2023/07/09 10:03:20;;;;;;;1.73;1.63;;;32.00;99.90;;;;;;5069971;28;20200;-82
2023/07/09 10:05:53;;;;;;;4.93;2.10;;;31.90;99.90;;;;;;5075778;28;20248;-90
2023/07/09 10:08:29;;;;;;;3.95;1.85;;;31.80;99.90;;;;;;5076630;28;20622;-83
2023/07/09 10:11:07;;;;;;;3.63;2.00;;;31.70;99.90;;;;;;5075585;28;20201;-87
2023/07/09 10:13:43;;;;;;;3.45;1.92;;;31.80;99.90;;;;;;5077233;28;20314;-86
2023/07/09 10:16:15;;;;;;;3.40;1.70;;;31.90;99.90;;;;;;5076606;28;20181;-86
2023/07/09 10:18:52;;;;;;;2.60;1.95;;;31.80;99.90;;;;;;5076260;28;20240;-86
2023/07/09 10:21:24;;;;;;;3.65;1.77;;;31.80;99.90;;;;;;5076788;28;20533;-87
2023/07/09 10:24:03;;;;;;;2.85;1.65;;;31.60;99.90;;;;;;5076575;28;20211;-86
2023/07/09 10:26:35;;;;;;;3.03;1.70;;;31.70;99.90;;;;;;5075995;28;20213;-86
2023/07/09 10:29:34;;;;;;;3.08;1.95;;;31.60;99.90;;;;;;5075813;28;20487;-85
2023/07/09 10:32:11;;;;;;;2.97;2.03;;;31.70;99.90;;;;;;5076093;28;20280;-87
2023/07/09 10:34:50;;;;;;;4.03;2.00;;;31.80;99.90;;;;;;5075473;28;20225;-84
2023/07/09 10:37:33;;;;;;;2.17;1.98;;;31.70;99.90;;;;;;5075499;28;20208;-84
2023/07/09 10:40:03;;;;;;;3.92;1.85;;;31.70;99.90;;;;;;5075017;28;20709;-86
2023/07/09 10:42:34;;;;;;;4.63;2.03;;;31.80;99.90;;;;;;5075450;28;20251;-84
2023/07/09 10:45:10;;;;;;;2.92;1.90;;;31.90;99.90;;;;;;5075538;28;20608;-85
2023/07/09 10:47:40;;;;;;;2.75;2.08;;;32.00;99.90;;;;;;5074870;28;20197;-84
2023/07/09 10:50:16;;;;;;;1.98;1.77;;;32.00;99.90;;;;;;5075979;28;20238;-86
2023/07/09 10:52:46;;;;;;;3.65;2.40;;;32.00;99.90;;;;;;5075332;28;20556;-84
2023/07/09 10:55:18;;;;;;;3.35;2.15;;;32.10;99.90;;;;;;5075860;28;20263;-86
2023/07/09 10:57:53;;;;;;;4.35;2.47;;;32.10;99.90;;;;;;5075565;28;20284;-85
2023/07/09 11:00:23;;;;;;;3.80;2.03;;;31.90;99.90;;;;;;5075996;28;20189;-88
2023/07/09 11:03:03;;;;;;;4.50;2.10;;;31.80;99.90;;;;;;5075226;28;20197;-84
2023/07/09 11:05:32;;;;;;;4.63;2.58;;;31.80;99.90;;;;;;5075316;28;20228;-85
2023/07/09 11:08:06;;;;;;;3.42;2.33;;;31.90;99.90;;;;;;5074671;28;20193;-84
2023/07/09 11:10:38;;;;;;;5.40;2.38;;;32.00;99.90;;;;;;5075622;28;20184;-85
2023/07/09 11:13:12;;;;;;;4.18;2.10;;;32.20;99.90;;;;;;5074699;28;20548;-84
2023/07/09 11:15:42;;;;;;;3.15;2.13;;;32.30;99.90;;;;;;5074567;28;20260;-85
2023/07/09 11:18:19;;;;;;;3.33;2.30;;;32.50;99.90;;;;;;5075278;28;20243;-85
2023/07/09 11:20:55;;;;;;;3.35;2.38;;;32.70;99.90;;;;;;5075077;28;20531;-85
2023/07/09 11:23:25;;;;;;;4.35;2.97;;;32.80;99.90;;;;;;5075422;28;20228;-87
2023/07/09 11:26:03;;;;;;;5.85;2.70;;;32.90;99.90;;;;;;5075408;28;20224;-87
2023/07/09 11:28:35;;;;;;;3.60;2.50;;;33.00;99.90;;;;;;5058422;28;20685;-88
2023/07/09 11:31:07;;;;;;;4.07;2.30;;;33.00;99.90;;;;;;5055226;28;20297;-85
2023/07/09 11:33:34;;;;;;;4.68;2.33;;;33.00;99.90;;;;;;5074545;28;20296;-87
2023/07/09 11:36:11;;;;;;;3.45;2.40;;;32.70;99.90;;;;;;5074782;28;20276;-85
2023/07/09 11:38:42;;;;;;;2.85;2.15;;;32.60;99.90;;;;;;5059660;28;20263;-87
2023/07/09 11:41:28;;;;;;;4.47;2.10;;;32.20;99.90;;;;;;5055515;28;20275;-86
2023/07/09 11:44:05;;;;;;;2.60;2.10;;;31.70;99.90;;;;;;5054715;28;20198;-85
2023/07/09 11:46:33;;;;;;;3.03;1.92;;;31.50;99.90;;;;;;5068487;28;20655;-85
2023/07/09 11:49:02;;;;;;;4.10;2.08;;;31.40;99.90;;;;;;5073972;28;20256;-85
2023/07/09 11:51:38;;;;;;;3.95;2.00;;;31.20;99.90;;;;;;5074516;28;20193;-85
2023/07/09 11:54:05;;;;;;;2.85;1.92;;;31.10;99.90;;;;;;5074468;28;20274;-86
2023/07/09 11:56:33;;;;;;;3.90;2.10;;;31.10;99.90;;;;;;5073634;28;20197;-85
2023/07/09 11:59:00;;;;;;;4.05;2.10;;;31.30;99.90;;;;;;5074024;28;20225;-84
2023/07/09 12:01:33;;;;;;;4.28;2.30;;;31.40;99.90;;;;;;5073665;28;20255;-88
2023/07/09 12:04:00;;;;;;;5.28;2.40;;;31.50;99.90;;;;;;5073702;28;20236;-85
2023/07/09 12:06:29;;;;;;;5.32;2.80;;;31.40;99.90;;;;;;5074624;28;20193;-83
2023/07/09 12:08:58;;;;;;;5.45;2.42;;;31.50;99.90;;;;;;5074037;28;20260;-85
2023/07/09 12:11:31;;;;;;;3.78;2.25;;;31.40;99.90;;;;;;5073537;28;20213;-82
2023/07/09 12:14:03;;;;;;;5.15;2.15;;;31.20;99.90;;;;;;5074123;28;20274;-87
2023/07/09 12:16:32;;;;;;;5.75;2.60;;;31.10;99.90;;;;;;5073967;28;20697;-85
2023/07/09 12:18:59;;;;;;;5.40;2.30;;;30.90;99.90;;;;;;5073014;28;20353;-84
2023/07/09 12:21:27;;;;;;;7.07;3.10;;;30.40;99.90;;;;;;5073756;28;20791;-84
2023/07/09 12:23:55;;;;;;;6.80;2.95;;;29.80;99.90;;;;;;5073513;28;20197;-83
2023/07/09 12:26:24;;;;;;;6.78;3.75;;;29.20;99.90;;;;;;5073631;28;20228;-86
2023/07/09 12:28:52;;;;;;;8.85;3.25;;;28.60;99.90;;;;;;5065759;28;20205;-85
2023/07/09 12:31:22;;;;;;;6.82;3.10;;;28.30;99.90;;;;;;5053422;28;20201;-84
2023/07/09 12:33:50;;;;;;;7.07;3.78;;;28.10;99.90;;;;;;5053277;28;20205;-85
2023/07/09 12:36:19;;;;;;;10.63;6.57;;;27.90;99.90;;;;;;5054172;28;20268;-86
2023/07/09 12:38:48;;;;;;;11.52;6.15;;;27.80;99.90;;;;;;5053187;28;20208;-85
2023/07/09 12:41:21;;;;;;;11.45;5.47;;;27.50;99.90;;;;;;5068559;28;20296;-85
2023/07/09 12:43:50;;;;;;;9.85;5.15;;;27.10;99.90;;;;;;5073749;28;20193;-85
2023/07/09 12:46:17;;;;;;;10.10;4.60;;;27.10;99.90;;;;;;5073378;28;20280;-86
2023/07/09 12:48:46;;;;;;;23.33;6.53;;;27.10;99.90;;;;;;5073467;28;20681;-80